createdAt,value
2018-08-12T00:00:38.003Z,24.07
2018-08-12T00:03:04.689Z,24.08
2018-08-12T00:05:31.341Z,24.10
2018-08-12T00:07:58.079Z,24.02
2018-08-12T00:10:24.904Z,24.07
2018-08-12T00:12:51.615Z,24.07
2018-08-12T00:15:19.799Z,24.00
2018-08-12T00:17:46.544Z,24.00
2018-08-12T00:20:15.315Z,24.01
2018-08-12T00:22:42.042Z,24.03
2018-08-12T00:25:10.682Z,24.00
2018-08-12T00:27:37.429Z,24.02
2018-08-12T00:30:04.773Z,24.02
2018-08-12T00:32:31.482Z,23.99
2018-08-12T00:34:59.130Z,24.02
2018-08-12T00:37:25.824Z,23.95
2018-08-12T00:39:52.485Z,24.00
2018-08-12T00:42:20.316Z,23.99
2018-08-12T00:44:46.953Z,23.97
2018-08-12T00:47:13.691Z,23.97
2018-08-12T00:49:40.380Z,24.00
2018-08-12T00:52:07.034Z,23.99
2018-08-12T00:54:33.677Z,23.96
2018-08-12T00:57:00.333Z,23.97
2018-08-12T00:59:27.013Z,23.99
2018-08-12T01:01:53.661Z,24.00
2018-08-12T01:04:20.313Z,23.99
2018-08-12T01:06:46.964Z,23.99
2018-08-12T01:09:13.613Z,23.96
2018-08-12T01:11:40.273Z,23.98
2018-08-12T01:14:06.924Z,23.97
2018-08-12T01:16:34.580Z,23.99
2018-08-12T01:19:02.320Z,24.01
2018-08-12T01:21:29.034Z,24.01
2018-08-12T01:23:55.691Z,23.96
2018-08-12T01:26:22.356Z,23.94
2018-08-12T01:28:50.010Z,23.97
2018-08-12T01:31:16.669Z,24.02
2018-08-12T01:33:43.340Z,23.98
2018-08-12T01:36:10.064Z,23.90
2018-08-12T01:38:37.175Z,23.87
2018-08-12T01:41:03.840Z,23.97
2018-08-12T01:43:30.528Z,23.95
2018-08-12T01:45:57.180Z,23.92
2018-08-12T01:48:24.624Z,23.93
2018-08-12T01:50:51.281Z,23.90
2018-08-12T01:53:17.955Z,23.88
2018-08-12T01:55:44.628Z,23.92
2018-08-12T01:58:11.305Z,23.93
2018-08-12T02:00:37.958Z,23.95
2018-08-12T02:03:04.630Z,23.94
2018-08-12T02:05:31.312Z,23.87
2018-08-12T02:07:57.976Z,23.92
2018-08-12T02:10:24.625Z,23.90
2018-08-12T02:12:51.288Z,23.91
2018-08-12T02:15:17.932Z,23.91
2018-08-12T02:17:44.585Z,23.91
2018-08-12T02:20:12.037Z,23.87
2018-08-12T02:22:39.400Z,23.83
2018-08-12T02:25:07.118Z,23.85
2018-08-12T02:27:33.793Z,23.88
2018-08-12T02:30:00.446Z,23.87
2018-08-12T02:32:27.101Z,23.87
2018-08-12T02:34:53.769Z,23.90
2018-08-12T02:37:20.432Z,23.88
2018-08-12T02:39:47.089Z,23.88
2018-08-12T02:42:13.756Z,23.85
2018-08-12T02:44:40.550Z,23.87
2018-08-12T02:47:07.226Z,23.85
2018-08-12T02:49:33.925Z,23.83
2018-08-12T02:52:00.588Z,23.83
2018-08-12T02:54:27.281Z,23.85
2018-08-12T02:56:53.969Z,23.84
2018-08-12T02:59:20.657Z,23.87
2018-08-12T03:01:47.388Z,23.86
2018-08-12T03:04:14.045Z,23.85
2018-08-12T03:06:41.175Z,23.87
2018-08-12T03:09:09.349Z,23.88
2018-08-12T03:11:37.189Z,23.84
2018-08-12T03:14:04.981Z,23.83
2018-08-12T03:16:31.628Z,23.83
2018-08-12T03:18:58.277Z,23.83
2018-08-12T03:21:24.937Z,23.88
2018-08-12T03:23:51.577Z,23.88
2018-08-12T03:26:18.237Z,23.88
2018-08-12T03:28:45.533Z,23.85
2018-08-12T03:31:12.178Z,23.87
2018-08-12T03:33:38.816Z,23.87
2018-08-12T03:36:06.766Z,23.92
2018-08-12T03:38:33.417Z,23.87
2018-08-12T03:41:00.077Z,23.83
2018-08-12T03:43:26.726Z,23.81
2018-08-12T03:45:53.372Z,23.80
2018-08-12T03:48:21.469Z,23.82
2018-08-12T03:50:48.113Z,23.81
2018-08-12T03:53:14.785Z,23.84
2018-08-12T03:55:41.444Z,23.84
2018-08-12T03:58:08.092Z,23.81
2018-08-12T04:00:34.758Z,23.83
2018-08-12T04:03:01.409Z,23.82
2018-08-12T04:05:28.140Z,23.84
2018-08-12T04:07:54.797Z,23.83
2018-08-12T04:10:21.572Z,23.82
2018-08-12T04:12:49.297Z,23.81
2018-08-12T04:15:16.053Z,23.81
2018-08-12T04:17:42.713Z,23.82
2018-08-12T04:20:10.300Z,23.82
2018-08-12T04:22:37.970Z,23.83
2018-08-12T04:25:04.676Z,23.83
2018-08-12T04:27:31.384Z,23.81
2018-08-12T04:29:58.155Z,23.80
2018-08-12T04:32:24.806Z,23.81
2018-08-12T04:34:51.485Z,23.82
2018-08-12T04:37:18.141Z,23.84
2018-08-12T04:39:44.801Z,23.82
2018-08-12T04:42:11.444Z,23.83
2018-08-12T04:44:38.101Z,23.84
2018-08-12T04:47:04.744Z,23.82
2018-08-12T04:49:31.381Z,23.87
2018-08-12T04:51:58.057Z,23.84
2018-08-12T04:54:24.719Z,23.85
2018-08-12T04:56:51.379Z,23.84
2018-08-12T04:59:18.008Z,23.84
2018-08-12T05:01:44.672Z,23.85
2018-08-12T05:04:11.345Z,23.84
2018-08-12T05:06:38.025Z,23.79
2018-08-12T05:09:06.831Z,23.81
2018-08-12T05:11:33.516Z,23.79
2018-08-12T05:14:00.166Z,23.82
2018-08-12T05:16:26.825Z,23.84
2018-08-12T05:18:53.516Z,23.83
2018-08-12T05:21:20.189Z,23.85
2018-08-12T05:23:46.858Z,23.89
2018-08-12T05:26:13.521Z,23.87
2018-08-12T05:28:40.186Z,23.85
2018-08-12T05:31:07.798Z,23.85
2018-08-12T05:33:34.472Z,23.91
2018-08-12T05:36:01.154Z,23.90
2018-08-12T05:38:27.843Z,23.87
2018-08-12T05:40:54.533Z,23.92
2018-08-12T05:43:21.196Z,23.92
2018-08-12T05:45:47.869Z,23.84
2018-08-12T05:48:14.534Z,23.85
2018-08-12T05:50:41.212Z,23.90
2018-08-12T05:53:07.857Z,23.89
2018-08-12T05:55:34.524Z,23.89
2018-08-12T05:58:01.176Z,23.90
2018-08-12T06:00:27.828Z,23.94
2018-08-12T06:02:54.555Z,23.97
2018-08-12T06:05:21.181Z,24.02
2018-08-12T06:07:47.862Z,24.04
2018-08-12T06:10:14.526Z,24.02
2018-08-12T06:12:41.236Z,23.99
2018-08-12T06:15:09.231Z,24.05
2018-08-12T06:17:37.385Z,24.07
2018-08-12T06:20:04.244Z,24.04
2018-08-12T06:22:30.958Z,24.11
2018-08-12T06:24:57.641Z,24.11
2018-08-12T06:27:24.350Z,24.10
2018-08-12T06:29:51.029Z,24.13
2018-08-12T06:32:17.721Z,24.16
2018-08-12T06:34:44.373Z,24.15
2018-08-12T06:37:11.093Z,24.19
2018-08-12T06:39:37.739Z,24.14
2018-08-12T06:42:04.448Z,24.17
2018-08-12T06:44:31.122Z,24.18
2018-08-12T06:46:57.812Z,24.18
2018-08-12T06:49:24.487Z,24.22
2018-08-12T06:51:51.163Z,24.21
2018-08-12T06:54:17.831Z,24.30
2018-08-12T06:56:44.488Z,24.29
2018-08-12T06:59:11.138Z,24.28
2018-08-12T07:01:37.818Z,24.28
2018-08-12T07:04:04.469Z,24.33
2018-08-12T07:06:31.158Z,24.34
2018-08-12T07:08:57.965Z,24.31
2018-08-12T07:11:24.638Z,24.31
2018-08-12T07:13:51.328Z,24.32
2018-08-12T07:16:17.983Z,24.34
2018-08-12T07:18:44.630Z,24.29
2018-08-12T07:21:11.285Z,24.28
2018-08-12T07:23:37.949Z,24.29
2018-08-12T07:26:04.608Z,24.30
2018-08-12T07:28:31.764Z,24.32
2018-08-12T07:30:58.435Z,24.34
2018-08-12T07:33:25.134Z,24.30
2018-08-12T07:35:51.777Z,24.33
2018-08-12T07:38:19.429Z,24.35
2018-08-12T07:40:46.928Z,24.34
2018-08-12T07:43:13.580Z,24.32
2018-08-12T07:45:40.241Z,24.30
2018-08-12T07:48:08.246Z,24.32
2018-08-12T07:50:34.920Z,24.29
2018-08-12T07:53:01.564Z,24.30
2018-08-12T07:55:28.259Z,24.29
2018-08-12T07:57:54.934Z,24.26
2018-08-12T08:00:21.606Z,24.26
2018-08-12T08:02:49.021Z,24.27
2018-08-12T08:05:15.672Z,24.26
2018-08-12T08:07:42.372Z,24.29
2018-08-12T08:10:10.025Z,24.35
2018-08-12T08:12:38.134Z,24.33
2018-08-12T08:15:05.052Z,24.32
2018-08-12T08:17:31.750Z,24.33
2018-08-12T08:19:58.417Z,24.35
2018-08-12T08:22:25.100Z,24.32
2018-08-12T08:24:52.696Z,24.34
2018-08-12T08:27:20.333Z,24.32
2018-08-12T08:29:47.017Z,24.35
2018-08-12T08:32:13.697Z,24.33
2018-08-12T08:34:40.444Z,24.33
2018-08-12T08:37:07.642Z,24.32
2018-08-12T08:39:34.362Z,24.31
2018-08-12T08:42:01.062Z,24.32
2018-08-12T08:44:27.733Z,24.31
2018-08-12T08:46:54.500Z,24.30
2018-08-12T08:49:21.157Z,24.34
2018-08-12T08:51:47.815Z,24.33
2018-08-12T08:54:14.478Z,24.33
2018-08-12T08:56:41.133Z,24.32
2018-08-12T08:59:07.772Z,24.32
2018-08-12T09:01:34.455Z,24.34
2018-08-12T09:04:01.111Z,24.32
2018-08-12T09:06:27.773Z,24.30
2018-08-12T09:08:54.564Z,24.28
2018-08-12T09:11:21.120Z,24.29
2018-08-12T09:13:47.780Z,24.32
2018-08-12T09:16:14.441Z,24.32
2018-08-12T09:18:41.845Z,24.32
2018-08-12T09:21:08.512Z,24.29
2018-08-12T09:23:35.181Z,24.32
2018-08-12T09:26:01.855Z,24.34
2018-08-12T09:28:29.028Z,24.30
2018-08-12T09:30:55.724Z,24.33
2018-08-12T09:33:22.404Z,24.30
2018-08-12T09:35:49.536Z,24.31
2018-08-12T09:38:16.217Z,24.28
2018-08-12T09:40:42.874Z,24.28
2018-08-12T09:43:09.602Z,24.34
2018-08-12T09:45:37.308Z,24.30
2018-08-12T09:48:04.035Z,24.30
2018-08-12T09:50:30.691Z,24.29
2018-08-12T09:52:57.386Z,24.30
2018-08-12T09:55:24.062Z,24.32
2018-08-12T09:57:50.729Z,24.31
2018-08-12T10:00:23.450Z,24.30
2018-08-12T10:02:51.173Z,24.26
2018-08-12T10:05:19.173Z,24.32
2018-08-12T10:07:46.155Z,24.30
2018-08-12T10:10:12.853Z,24.30
2018-08-12T10:12:39.842Z,24.30
2018-08-12T10:15:07.753Z,24.30
2018-08-12T10:17:34.665Z,24.31
2018-08-12T10:20:01.370Z,24.32
2018-08-12T10:22:28.064Z,24.35
2018-08-12T10:24:54.753Z,24.32
2018-08-12T10:27:21.425Z,24.29
2018-08-12T10:29:49.454Z,24.29
2018-08-12T10:32:16.204Z,24.29
2018-08-12T10:34:42.846Z,24.34
2018-08-12T10:37:09.532Z,24.33
2018-08-12T10:39:36.949Z,24.34
2018-08-12T10:42:03.629Z,24.35
2018-08-12T10:44:30.352Z,24.36
2018-08-12T10:46:57.837Z,24.35
2018-08-12T10:49:24.557Z,24.33
2018-08-12T10:51:52.093Z,24.34
2018-08-12T10:54:19.616Z,24.28
2018-08-12T10:56:46.380Z,24.30
2018-08-12T10:59:13.127Z,24.33
2018-08-12T11:01:39.823Z,24.34
2018-08-12T11:04:07.457Z,24.33
2018-08-12T11:06:35.325Z,24.32
2018-08-12T11:09:01.999Z,24.31
2018-08-12T11:11:29.660Z,24.32
2018-08-12T11:13:56.322Z,24.29
2018-08-12T11:16:22.994Z,24.31
2018-08-12T11:18:50.037Z,24.30
2018-08-12T11:21:16.692Z,24.30
2018-08-12T11:23:43.355Z,24.32
2018-08-12T11:26:10.034Z,24.30
2018-08-12T11:28:37.870Z,24.35
2018-08-12T11:31:04.559Z,24.32
2018-08-12T11:33:31.218Z,24.35
2018-08-12T11:35:57.904Z,24.34
2018-08-12T11:38:24.998Z,24.32
2018-08-12T11:40:51.680Z,24.34
2018-08-12T11:43:19.496Z,24.32
2018-08-12T11:45:46.169Z,24.29
2018-08-12T11:48:12.878Z,24.27
2018-08-12T11:50:39.537Z,24.32
2018-08-12T11:53:06.821Z,24.33
2018-08-12T11:55:33.501Z,24.28
2018-08-12T11:58:00.166Z,24.32
2018-08-12T12:00:26.857Z,24.32
2018-08-12T12:02:53.518Z,24.32
2018-08-12T12:05:20.202Z,24.30
2018-08-12T12:07:46.901Z,24.30
2018-08-12T12:10:15.398Z,24.30
2018-08-12T12:12:42.953Z,24.30
2018-08-12T12:15:10.114Z,24.28
2018-08-12T12:17:37.796Z,24.29
2018-08-12T12:20:05.329Z,24.28
2018-08-12T12:22:32.009Z,24.28
2018-08-12T12:24:58.683Z,24.33
2018-08-12T12:27:25.360Z,24.27
2018-08-12T12:29:52.124Z,24.26
2018-08-12T12:32:19.509Z,24.29
2018-08-12T12:34:46.152Z,24.28
2018-08-12T12:37:12.813Z,24.27
2018-08-12T12:39:39.461Z,24.30
2018-08-12T12:42:06.789Z,24.30
2018-08-12T12:44:33.436Z,24.30
2018-08-12T12:47:00.077Z,24.30
2018-08-12T12:49:26.743Z,24.31
2018-08-12T12:51:53.448Z,24.27
2018-08-12T12:54:20.098Z,24.28
2018-08-12T12:56:46.775Z,24.28
2018-08-12T12:59:14.665Z,24.29
2018-08-12T13:01:41.338Z,24.28
2018-08-12T13:04:08.079Z,24.28
2018-08-12T13:06:35.515Z,24.28
2018-08-12T13:09:02.992Z,24.30
2018-08-12T13:11:29.643Z,24.36
2018-08-12T13:13:56.315Z,24.48
2018-08-12T13:16:22.984Z,24.57
2018-08-12T13:18:50.709Z,24.65
2018-08-12T13:21:17.361Z,24.70
2018-08-12T13:23:44.030Z,24.76
2018-08-12T13:26:10.690Z,24.77
2018-08-12T13:28:37.402Z,24.76
2018-08-12T13:31:04.073Z,24.77
2018-08-12T13:33:30.737Z,24.77
2018-08-12T13:35:57.396Z,24.79
2018-08-12T13:38:24.051Z,24.76
2018-08-12T13:40:50.716Z,24.77
2018-08-12T13:43:17.393Z,24.77
2018-08-12T13:45:44.052Z,24.73
2018-08-12T13:48:10.721Z,24.74
2018-08-12T13:50:37.688Z,24.74
2018-08-12T13:53:04.400Z,24.69
2018-08-12T13:55:31.046Z,24.70
2018-08-12T13:57:57.715Z,24.72
2018-08-12T14:00:25.445Z,24.73
2018-08-12T14:02:52.156Z,24.73
2018-08-12T14:05:19.694Z,24.73
2018-08-12T14:07:47.092Z,24.70
2018-08-12T14:10:13.772Z,24.70
2018-08-12T14:12:40.553Z,24.71
2018-08-12T14:15:10.454Z,24.71
2018-08-12T14:17:38.248Z,24.70
2018-08-12T14:20:05.221Z,24.68
2018-08-12T14:22:31.869Z,24.70
2018-08-12T14:24:58.521Z,24.70
2018-08-12T14:27:25.305Z,24.69
2018-08-12T14:29:51.978Z,24.70
2018-08-12T14:32:19.835Z,24.70
2018-08-12T14:34:46.494Z,24.67
2018-08-12T14:37:13.178Z,24.69
2018-08-12T14:39:39.840Z,24.69
2018-08-12T14:42:07.063Z,24.70
2018-08-12T14:44:33.757Z,24.70
2018-08-12T14:47:00.425Z,24.68
2018-08-12T14:49:27.092Z,24.66
2018-08-12T14:51:53.757Z,24.68
2018-08-12T14:54:20.426Z,24.68
2018-08-12T14:56:47.074Z,24.67
2018-08-12T14:59:13.753Z,24.65
2018-08-12T15:01:40.426Z,24.66
2018-08-12T15:04:07.093Z,24.65
2018-08-12T15:06:34.470Z,24.66
2018-08-12T15:09:01.129Z,24.64
2018-08-12T15:11:27.795Z,24.64
2018-08-12T15:13:54.460Z,24.62
2018-08-12T15:16:21.128Z,24.64
2018-08-12T15:18:47.812Z,24.61
2018-08-12T15:21:14.481Z,24.62
2018-08-12T15:23:41.141Z,24.63
2018-08-12T15:26:07.813Z,24.63
2018-08-12T15:28:34.461Z,24.65
2018-08-12T15:31:01.126Z,24.62
2018-08-12T15:33:27.788Z,24.63
2018-08-12T15:35:54.446Z,24.63
2018-08-12T15:38:21.544Z,24.64
2018-08-12T15:40:48.213Z,24.63
2018-08-12T15:43:14.888Z,24.60
2018-08-12T15:45:41.554Z,24.62
2018-08-12T15:48:08.201Z,24.63
2018-08-12T15:50:34.835Z,24.65
2018-08-12T15:53:01.508Z,24.63
2018-08-12T15:55:28.173Z,24.63
2018-08-12T15:57:54.845Z,24.65
2018-08-12T16:00:22.365Z,24.62
2018-08-12T16:02:49.780Z,24.59
2018-08-12T16:05:16.437Z,24.58
2018-08-12T16:07:43.930Z,24.61
2018-08-12T16:10:11.423Z,24.63
2018-08-12T16:12:38.069Z,24.61
2018-08-12T16:15:07.713Z,24.61
2018-08-12T16:17:34.397Z,24.58
2018-08-12T16:20:01.106Z,24.59
2018-08-12T16:22:27.856Z,24.61
2018-08-12T16:24:54.445Z,24.61
2018-08-12T16:27:21.102Z,24.60
2018-08-12T16:29:47.787Z,24.62
2018-08-12T16:32:14.469Z,24.61
2018-08-12T16:34:41.171Z,24.61
2018-08-12T16:37:07.885Z,24.61
2018-08-12T16:39:34.581Z,24.62
2018-08-12T16:42:01.267Z,24.62
2018-08-12T16:44:27.932Z,24.61
2018-08-12T16:46:54.601Z,24.59
2018-08-12T16:49:21.301Z,24.57
2018-08-12T16:51:47.989Z,24.58
2018-08-12T16:54:14.736Z,24.58
2018-08-12T16:56:41.460Z,24.55
2018-08-12T16:59:08.133Z,24.58
2018-08-12T17:01:34.789Z,24.57
2018-08-12T17:04:01.512Z,24.57
2018-08-12T17:06:28.216Z,24.57
2018-08-12T17:08:55.308Z,24.57
2018-08-12T17:11:22.093Z,24.56
2018-08-12T17:13:51.156Z,24.57
2018-08-12T17:16:17.849Z,24.54
2018-08-12T17:18:44.541Z,24.54
2018-08-12T17:21:11.212Z,24.56
2018-08-12T17:23:37.876Z,24.57
2018-08-12T17:26:04.663Z,24.55
2018-08-12T17:28:32.132Z,24.56
2018-08-12T17:30:58.785Z,24.56
2018-08-12T17:33:25.429Z,24.57
2018-08-12T17:35:52.104Z,24.55
2018-08-12T17:38:19.849Z,24.54
2018-08-12T17:40:46.525Z,24.57
2018-08-12T17:43:13.181Z,24.55
2018-08-12T17:45:39.868Z,24.55
2018-08-12T17:48:07.826Z,24.55
2018-08-12T17:50:34.470Z,24.56
2018-08-12T17:53:01.154Z,24.55
2018-08-12T17:55:28.086Z,24.55
2018-08-12T17:57:54.780Z,24.54
2018-08-12T18:00:21.441Z,24.54
2018-08-12T18:02:49.425Z,24.55
2018-08-12T18:05:16.109Z,24.52
2018-08-12T18:07:42.778Z,24.53
2018-08-12T18:10:09.470Z,24.53
2018-08-12T18:12:37.392Z,24.52
2018-08-12T18:15:04.751Z,24.53
2018-08-12T18:17:31.441Z,24.55
2018-08-12T18:19:58.169Z,24.53
2018-08-12T18:22:25.116Z,24.50
2018-08-12T18:24:51.900Z,24.52
2018-08-12T18:27:20.140Z,24.53
2018-08-12T18:29:47.092Z,24.52
2018-08-12T18:32:13.829Z,24.50
2018-08-12T18:34:40.865Z,24.50
2018-08-12T18:37:07.831Z,24.48
2018-08-12T18:39:34.871Z,24.47
2018-08-12T18:42:01.925Z,24.49
2018-08-12T18:44:29.095Z,24.49
2018-08-12T18:46:56.216Z,24.48
2018-08-12T18:49:23.953Z,24.45
2018-08-12T18:51:50.954Z,24.47
2018-08-12T18:54:17.954Z,24.46
2018-08-12T18:56:44.978Z,24.47
2018-08-12T18:59:11.980Z,24.45
2018-08-12T19:01:38.985Z,24.45
2018-08-12T19:04:07.009Z,24.44
2018-08-12T19:06:36.616Z,24.42
2018-08-12T19:09:05.632Z,24.40
2018-08-12T19:11:32.627Z,24.40
2018-08-12T19:13:59.668Z,24.40
2018-08-12T19:16:26.655Z,24.39
2018-08-12T19:18:53.663Z,24.38
2018-08-12T19:21:20.697Z,24.36
2018-08-12T19:23:47.691Z,24.32
2018-08-12T19:26:14.822Z,24.29
2018-08-12T19:28:41.847Z,24.25
2018-08-12T19:31:09.100Z,24.22
2018-08-12T19:33:37.232Z,24.25
2018-08-12T19:36:04.308Z,24.27
2018-08-12T19:38:31.608Z,24.26
2018-08-12T19:40:58.633Z,24.27
2018-08-12T19:43:25.794Z,24.28
2018-08-12T19:45:52.816Z,24.27
2018-08-12T19:48:20.552Z,24.28
2018-08-12T19:50:47.591Z,24.27
2018-08-12T19:53:14.620Z,24.33
2018-08-12T19:55:41.635Z,24.36
2018-08-12T19:58:08.693Z,24.36
2018-08-12T20:00:37.590Z,24.40
2018-08-12T20:03:04.988Z,24.47
2018-08-12T20:05:32.017Z,24.52
2018-08-12T20:07:59.038Z,24.64
2018-08-12T20:10:26.119Z,24.64
2018-08-12T20:12:53.505Z,24.67
2018-08-12T20:15:20.653Z,24.71
2018-08-12T20:17:47.733Z,24.73
2018-08-12T20:20:14.725Z,24.74
2018-08-12T20:22:41.865Z,24.76
2018-08-12T20:25:09.243Z,24.77
2018-08-12T20:27:36.806Z,24.78
2018-08-12T20:30:04.836Z,24.77
2018-08-12T20:32:31.848Z,24.77
2018-08-12T20:34:58.859Z,24.74
2018-08-12T20:37:26.308Z,24.75
2018-08-12T20:39:53.447Z,24.73
2018-08-12T20:42:20.456Z,24.72
2018-08-12T20:44:47.407Z,24.73
2018-08-12T20:47:14.420Z,24.71
2018-08-12T20:49:41.273Z,24.70
2018-08-12T20:52:08.285Z,24.67
2018-08-12T20:54:35.189Z,24.66
2018-08-12T20:57:02.250Z,24.62
2018-08-12T20:59:29.088Z,24.64
2018-08-12T21:01:55.820Z,24.61
2018-08-12T21:04:22.540Z,24.65
2018-08-12T21:06:49.794Z,24.67
2018-08-12T21:09:16.511Z,24.62
2018-08-12T21:11:43.328Z,24.62
2018-08-12T21:14:10.029Z,24.57
2018-08-12T21:16:38.428Z,24.60
2018-08-12T21:19:05.160Z,24.60
2018-08-12T21:21:31.824Z,24.60
2018-08-12T21:23:58.477Z,24.59
2018-08-12T21:26:25.137Z,24.58
2018-08-12T21:28:51.801Z,24.59
2018-08-12T21:31:19.649Z,24.55
2018-08-12T21:33:46.324Z,24.54
2018-08-12T21:36:13.341Z,24.49
2018-08-12T21:38:40.848Z,24.53
2018-08-12T21:41:08.149Z,24.53
2018-08-12T21:43:34.828Z,24.47
2018-08-12T21:46:01.482Z,24.53
2018-08-12T21:48:28.545Z,24.49
2018-08-12T21:50:55.207Z,24.48
2018-08-12T21:53:21.864Z,24.46
2018-08-12T21:55:49.585Z,24.51
2018-08-12T21:58:16.298Z,24.53
2018-08-12T22:00:43.146Z,24.55
2018-08-12T22:03:09.801Z,24.51
2018-08-12T22:05:37.143Z,24.53
2018-08-12T22:08:07.934Z,24.54
2018-08-12T22:10:34.653Z,24.52
2018-08-12T22:13:01.318Z,24.54
2018-08-12T22:15:27.960Z,24.48
2018-08-12T22:17:54.692Z,24.51
2018-08-12T22:20:21.357Z,24.53
2018-08-12T22:22:48.034Z,24.51
2018-08-12T22:25:14.700Z,24.48
2018-08-12T22:27:41.363Z,24.48
2018-08-12T22:30:09.637Z,24.34
2018-08-12T22:32:36.340Z,24.45
2018-08-12T22:35:03.117Z,24.41
2018-08-12T22:37:29.766Z,24.44
2018-08-12T22:39:56.405Z,24.40
2018-08-12T22:42:24.086Z,24.40
2018-08-12T22:44:50.733Z,24.41
2018-08-12T22:47:19.328Z,24.41
2018-08-12T22:49:45.997Z,24.38
2018-08-12T22:52:12.675Z,24.38
2018-08-12T22:54:39.517Z,24.36
2018-08-12T22:57:07.241Z,24.35
2018-08-12T22:59:33.902Z,24.36
2018-08-12T23:02:00.570Z,24.35
2018-08-12T23:04:27.221Z,24.32
2018-08-12T23:06:53.896Z,24.33
2018-08-12T23:09:20.555Z,24.36
2018-08-12T23:11:47.256Z,24.33
2018-08-12T23:14:13.941Z,24.32
2018-08-12T23:16:46.550Z,24.27
2018-08-12T23:19:13.269Z,24.24
2018-08-12T23:21:39.920Z,24.27
2018-08-12T23:24:07.348Z,24.26
2018-08-12T23:26:35.712Z,24.28
2018-08-12T23:29:02.388Z,24.23
2018-08-12T23:31:29.057Z,24.20
2018-08-12T23:33:55.744Z,24.23
2018-08-12T23:36:22.433Z,24.22
2018-08-12T23:38:50.716Z,24.16
2018-08-12T23:41:17.359Z,24.19
2018-08-12T23:43:44.033Z,24.22
2018-08-12T23:46:11.013Z,24.20
2018-08-12T23:48:38.783Z,24.17
2018-08-12T23:51:05.498Z,24.18
2018-08-12T23:53:32.179Z,24.17
2018-08-12T23:55:58.836Z,24.15
2018-08-12T23:58:26.075Z,24.15
